M I D A S
Marine Information and Data Acquisition System
Tripno 741 of the Zeeleeuw from 2004-06-29 06:20:40 to 2004-06-29 11:54:46
Back to CruiseResearch ActivitiesStationsMapUnderway DataData graphs

EquipmentUnitsComment
TimeDGPSUTC
LatitudeDGPSDM.mWGS84
LongitudeDGPSDM.mWGS84
HeadingGyrodeg 
SOGDGPSknotsSpeed over ground
COGDGPSdegCourse over ground
DepthEcho soundermeters200 kHz
Missing or incorrect values are displayed as -999
Navigation data collected by the RV Zeeleeuw from 2004-06-29 06:20:40 to 2004-06-29 11:54:46
Time Latitude Longitude Heading SOG COG Depth
2004-06-29 06:21:42 51°13.599 2°56.079 116.5 2.1 289 -999
2004-06-29 06:22:42 51°13.629 2°55.999 127.8 4.3 304 -999
2004-06-29 06:23:42 51°13.674 2°55.897 129.8 4.8 306 -999
2004-06-29 06:24:42 51°13.728 2°55.792 135 5.4 311 -999
2004-06-29 06:25:42 51°13.789 2°55.689 143.5 5.4 319 -999
2004-06-29 06:26:42 51°13.867 2°55.622 170 5.2 344 -999
2004-06-29 06:27:42 51°13.952 2°55.627 202.3 4.8 15 -999
2004-06-29 06:28:41 51°13.963 2°55.586 278.7 4.6 281 12.1
2004-06-29 06:29:41 51°14.047 2°55.471 337.6 8.4 334 11.2
2004-06-29 06:30:42 51°14.181 2°55.367 335.9 10 329 12.1
2004-06-29 06:31:42 51°14.31 2°55.168 316.4 11.2 311 11.8
2004-06-29 06:32:42 51°14.465 2°54.949 324.9 13.1 322 11.1
2004-06-29 06:33:42 51°14.657 2°54.776 337.5 13.4 335 10.3
2004-06-29 06:34:47 51°14.871 2°54.601 336 13.3 332 10
2004-06-29 06:35:47 51°15.067 2°54.437 336.4 13.2 332 9.2
2004-06-29 06:36:47 51°15.263 2°54.274 336.6 13.4 332 9.8
2004-06-29 06:37:47 51°15.459 2°54.103 335 13.3 331 10.6
2004-06-29 06:38:47 51°15.652 2°53.927 335.2 13.4 330 11.4
2004-06-29 06:39:47 51°15.85 2°53.77 338.4 13.3 334 12.1
2004-06-29 06:40:47 51°16.048 2°53.618 338.2 13.3 334 12.5
2004-06-29 06:41:47 51°16.248 2°53.466 338.2 13.2 334 12.9
2004-06-29 06:42:48 51°16.45 2°53.312 338.3 13.3 334 13.2
2004-06-29 06:43:47 51°16.644 2°53.163 338.2 13.2 335 12.5
2004-06-29 06:44:47 51°16.841 2°53.012 338.3 13 334 9.8
2004-06-29 06:45:48 51°17.035 2°52.851 334.9 13.2 331 10.5
2004-06-29 06:46:47 51°17.223 2°52.685 335.5 13.1 331 10.4
2004-06-29 06:47:47 51°17.414 2°52.515 334.9 13.2 331 11.1
2004-06-29 06:48:47 51°17.604 2°52.345 335.1 13.1 331 11.3
2004-06-29 06:49:48 51°17.798 2°52.173 334.5 13.1 330 11.3
2004-06-29 06:50:47 51°17.986 2°52.007 335.3 13.1 331 11.5
2004-06-29 06:51:48 51°18.179 2°51.835 335.4 13.1 331 12.1
2004-06-29 06:52:47 51°18.339 2°51.614 319.6 13.1 315 13.2
2004-06-29 06:53:48 51°18.496 2°51.367 320.6 13 315 14.4
2004-06-29 06:54:46 51°18.646 2°51.132 320.7 13 315 15.3
2004-06-29 06:55:47 51°18.805 2°50.886 321.3 13.1 317 15.8
2004-06-29 06:56:47 51°18.963 2°50.647 320.9 13.1 317 15.6
2004-06-29 06:57:47 51°19.123 2°50.411 321.3 13 318 14.4
2004-06-29 06:58:47 51°19.282 2°50.177 321 12.9 317 12.8
2004-06-29 06:59:48 51°19.439 2°49.934 317.4 12.9 312 14
2004-06-29 07:00:48 51°19.579 2°49.671 314.4 13 310 15.4
2004-06-29 07:01:48 51°19.697 2°49.387 297.3 12.9 290 17.7
2004-06-29 07:02:48 51°19.757 2°49.054 291.1 13.1 285 19.8
2004-06-29 07:03:48 51°19.79 2°48.708 282.8 13.2 277 21.8
2004-06-29 07:04:56 51°19.834 2°48.317 285.3 13.2 280 23.5
2004-06-29 07:05:55 51°19.873 2°47.978 285.4 13.2 280 23.5
2004-06-29 07:06:55 51°19.916 2°47.636 286.4 13.1 282 23.3
2004-06-29 07:07:55 51°19.96 2°47.296 286.3 13.1 282 22.3
2004-06-29 07:08:56 51°20.005 2°46.952 286 13 281 21.1
2004-06-29 07:09:56 51°20.049 2°46.617 286.3 12.9 283 16.4
2004-06-29 07:10:54 51°20.089 2°46.293 284.1 12.9 278 14.8
2004-06-29 07:11:55 51°20.106 2°45.948 278.4 12.9 274 16
2004-06-29 07:12:56 51°20.124 2°45.601 278.7 12.9 275 20.6
2004-06-29 07:13:54 51°20.142 2°45.269 279 12.9 275 24.5
2004-06-29 07:14:55 51°20.161 2°44.92 278.8 13 275 25.5
2004-06-29 07:15:55 51°20.18 2°44.575 279.1 13 275 26.9
2004-06-29 07:16:56 51°20.2 2°44.226 279.1 12.9 274 27.7
2004-06-29 07:17:56 51°20.23 2°43.887 282.3 13 278 28.5
2004-06-29 07:18:56 51°20.28 2°43.555 290.8 12.8 287 28.6
2004-06-29 07:19:54 51°20.342 2°43.239 290.3 12.9 287 28
2004-06-29 07:20:54 51°20.404 2°42.913 290.5 12.8 287 25.2
2004-06-29 07:21:56 51°20.469 2°42.576 290.7 12.8 287 24.1
2004-06-29 07:22:56 51°20.531 2°42.251 290.4 12.7 287 20.5
2004-06-29 07:23:56 51°20.594 2°41.928 290.5 12.8 287 21
2004-06-29 07:24:56 51°20.668 2°41.613 300.8 12.7 299 25.1
2004-06-29 07:25:56 51°20.842 2°41.422 342.4 13.1 342 28
2004-06-29 07:26:56 51°21.062 2°41.355 354.2 13.7 353 27.2
2004-06-29 07:27:54 51°21.279 2°41.347 1.1 13.6   26.9
2004-06-29 07:28:56 51°21.515 2°41.344 2 13.8 359 29
2004-06-29 07:29:55 51°21.738 2°41.343 1.2 13.5 1 28.7
2004-06-29 07:30:55 51°21.964 2°41.346 2 13.6   29.8
2004-06-29 07:31:55 51°22.191 2°41.35 1.5 13.7   29.8
2004-06-29 07:32:56 51°22.422 2°41.352 2.6 13.8 2 29.1
2004-06-29 07:33:54 51°22.643 2°41.355 2.3 13.7 1 31.5
2004-06-29 07:34:55 51°22.875 2°41.357 1.9 13.7 1 30.6
2004-06-29 07:35:56 51°23.108 2°41.361 2.9 13.8   30.5
2004-06-29 07:37:02 51°23.359 2°41.365 2.1 13.6 1 31.3
2004-06-29 07:38:00 51°23.578 2°41.357 354.6 13.5 350 31.4
2004-06-29 07:39:00 51°23.797 2°41.28 348.2 13.5 347 30.2
2004-06-29 07:40:10 51°24.054 2°41.193 350.8 13.5 350 28.8
2004-06-29 07:41:10 51°24.274 2°41.123 350.5 13.6 348 26.5
2004-06-29 07:42:10 51°24.494 2°41.048 350 13.5 348 26.3
2004-06-29 07:43:09 51°24.711 2°40.979 350 13.5 350 26.5
2004-06-29 07:44:09 51°24.932 2°40.906 350.3 13.5 348 27.8
2004-06-29 07:45:09 51°25.155 2°40.869 6.5 13.7 5 26.8
2004-06-29 07:46:10 51°25.366 2°41.023 38.2 14.2 36 29.1
2004-06-29 07:47:10 51°25.556 2°41.247 39.9 13.8 37 28.9
2004-06-29 07:48:09 51°25.733 2°41.482 46.9 14.1 45 28.7
2004-06-29 07:49:10 51°25.902 2°41.762 49.8 14.3 46 30.7
2004-06-29 07:50:10 51°26.066 2°42.038 53.7 14.5 51 27.4
2004-06-29 07:51:10 51°26.192 2°42.362 62.8 14.2 60 29.4
2004-06-29 07:52:09 51°26.321 2°42.681 59.9 14.1 57 28.5
2004-06-29 07:53:09 51°26.451 2°43.002 60 14.5 55 28.4
2004-06-29 07:54:09 51°26.579 2°43.325 62.2 14.5 58 26.6
2004-06-29 07:55:14 51°26.721 2°43.678 60.3 14.4 57 24.4
2004-06-29 07:56:14 51°26.852 2°44.001 64.6 14.5 64 24.4
2004-06-29 07:57:13 51°26.883 2°44.372 97.6 14.4 94 26.7
2004-06-29 07:58:14 51°26.781 2°44.718 129.9 14.2 123 29.6
2004-06-29 07:59:14 51°26.629 2°45.001 146.1 14 140 30.3
2004-06-29 08:00:14 51°26.454 2°45.236 147.1 13.8 138 30.2
2004-06-29 08:01:13 51°26.281 2°45.471 146.7 13.9 139 29.4
2004-06-29 08:02:13 51°26.103 2°45.708 147.3 13.7 139 27.6
2004-06-29 08:03:14 51°25.929 2°45.956 145.1 13.9 137 26.1
2004-06-29 08:04:14 51°25.761 2°46.21 136.1 14 127 26.6
2004-06-29 08:05:14 51°25.652 2°46.548 124.1 14.5 117 24.5
2004-06-29 08:06:14 51°25.624 2°46.913 80.2 13.9 69 24.9
2004-06-29 08:07:13 51°25.733 2°47.247 69.1 14.8 64 26.4
2004-06-29 08:08:14 51°25.858 2°47.588 64.8 14.4 60 22.7
2004-06-29 08:09:13 51°25.978 2°47.918 65.1 14.7 60 24.6
2004-06-29 08:10:13 51°26.141 2°48.211 50.7 15 44 23.5
2004-06-29 08:11:14 51°26.308 2°48.504 52.7 14.5 47 23.4
2004-06-29 08:12:14 51°26.473 2°48.793 51.3 14.7 49 22.9
2004-06-29 08:13:13 51°26.628 2°49.083 55.3 14.5 51 23.4
2004-06-29 08:14:13 51°26.786 2°49.384 53.3 14.7 50 22.7
2004-06-29 08:15:13 51°26.978 2°49.547 355.8 12.9 351 24.5
2004-06-29 08:16:14 51°27.186 2°49.415 337.6 13.4 337 26.6
2004-06-29 08:17:14 51°27.393 2°49.27 337.4 13.5 336 27.1
2004-06-29 08:18:14 51°27.6 2°49.129 337.5 13.6 337 27.7
2004-06-29 08:19:14 51°27.809 2°48.991 338.1 13.5 339 28.3
2004-06-29 08:20:14 51°28.019 2°48.862 340.4 13.5 342 26.4
2004-06-29 08:21:14 51°28.237 2°48.957 38 14.5 38 32
2004-06-29 08:22:14 51°28.408 2°49.24 57 14.9 54 32.2
2004-06-29 08:23:14 51°28.535 2°49.579 70.5 14.7 67 31.4
2004-06-29 08:24:13 51°28.614 2°49.947 73.9 14.9 70 29.5
2004-06-29 08:25:13 51°28.698 2°50.326 74 14.9 72 28.5
2004-06-29 08:26:13 51°28.795 2°50.696 70.3 15.3 65 30.2
2004-06-29 08:27:13 51°28.899 2°51.064 69.5 15.3 66 30
2004-06-29 08:28:13 51°29.001 2°51.431 72 15 66 31.4
2004-06-29 08:29:13 51°29.106 2°51.795 68.7 15.1 64 33
2004-06-29 08:30:14 51°29.17 2°52.177 94.3 14.8 92 33.4
2004-06-29 08:31:14 51°29.073 2°52.518 137.9 14.1 129 31.2
2004-06-29 08:32:14 51°28.918 2°52.799 140.5 14.2 131 28.8
2004-06-29 08:33:21 51°28.743 2°53.112 141.5 14.1 131 28.4
2004-06-29 08:34:21 51°28.581 2°53.38 149.3 13.8 140 26.9
2004-06-29 08:35:20 51°28.403 2°53.607 149.6 14 139 25.1
2004-06-29 08:36:20 51°28.223 2°53.835 152.4 13.7 142 23.5
2004-06-29 08:37:25 51°28.026 2°54.078 151.3 14.1 141 22.9
2004-06-29 08:38:25 51°27.849 2°54.315 148.4 14 142 23.4
2004-06-29 08:39:25 51°27.671 2°54.547 151.8 13.6 143 29
2004-06-29 08:40:25 51°27.495 2°54.78 151.6 13.7 141 31.4
2004-06-29 08:41:26 51°27.315 2°55.02 151.3 13.9 141 31.4
2004-06-29 08:42:26 51°27.137 2°55.261 150 14 139 30.7
2004-06-29 08:43:25 51°26.964 2°55.492 148.8 13.6 138 31.1
2004-06-29 08:44:30 51°26.769 2°55.745 151.3 13.9 142 28.9
2004-06-29 08:45:29 51°26.592 2°55.976 149.8 14.2 141 27.1
2004-06-29 08:46:30 51°26.412 2°56.211 150.5 13.7 139 23.1
2004-06-29 08:47:30 51°26.237 2°56.445 149 13.7 138 19.9
2004-06-29 08:48:29 51°26.132 2°56.772 117.8 14.4 111 20.1
2004-06-29 08:49:30 51°26.065 2°57.157 115.1 14.9 107 18.9
2004-06-29 08:50:29 51°26.008 2°57.528 110.2 14.4 104 19.3
2004-06-29 08:51:30 51°25.947 2°57.911 114.4 14.5 109 25
2004-06-29 08:52:30 51°25.878 2°58.283 116.3 14.7 106 27
2004-06-29 08:53:29 51°25.81 2°58.658 114 14.8 107 26.8
2004-06-29 08:54:30 51°25.74 2°59.044 114.7 14.7 106 25.5
2004-06-29 08:55:30 51°25.682 2°59.422 112.7 15 104 23.8
2004-06-29 08:56:30 51°25.625 2°59.804 110.6 14.8 100 21.6
2004-06-29 08:57:29 51°25.572 3°0.182 108.5 14.7 99 18.8
2004-06-29 08:58:37 51°25.511 3°0.612 111.2 14.7 104 17.1
2004-06-29 08:59:44 51°25.448 3°1.036 108.1 14.5 101 16
2004-06-29 09:00:47 51°25.391 3°1.438 106.2 14.8 100 15.4
2004-06-29 09:01:47 51°25.364 3°1.829 102.3 14.9 96 15
2004-06-29 09:02:47 51°25.334 3°2.225 104.8 15 99 15.6
2004-06-29 09:03:47 51°25.298 3°2.616 103.3 14.8 98 16
2004-06-29 09:04:47 51°25.263 3°3.005 103.7 14.7 97 15.9
2004-06-29 09:05:47 51°25.22 3°3.397 105 14.9 98 15.9
2004-06-29 09:06:49 51°25.18 3°3.799 105.3 14.8 98 16.1
2004-06-29 09:07:50 51°25.143 3°4.201 107.2 15 100 16
2004-06-29 09:08:49 51°25.101 3°4.588 104.4 14.8 99 15.6
2004-06-29 09:09:49 51°25.074 3°4.975 102.4 14.5 97 15.4
2004-06-29 09:10:50 51°25.034 3°5.371 106.5 15 101 14.9
2004-06-29 09:11:49 51°24.993 3°5.758 105.1 15.1 99 14.3
2004-06-29 09:12:50 51°24.949 3°6.163 107.4 15 102 13.8
2004-06-29 09:13:53 51°24.911 3°6.585 101.6 15.1 97 13.3
2004-06-29 09:14:51 51°24.874 3°6.968 105 15 98 13
2004-06-29 09:15:51 51°24.845 3°7.361 100.1 15 96 12.7
2004-06-29 09:16:51 51°24.82 3°7.755 100.8 14.9 98 12.4
2004-06-29 09:17:53 51°24.797 3°8.165 98.3 15 95 12
2004-06-29 09:18:51 51°24.78 3°8.548 94.3 14.9 90 11.8
2004-06-29 09:19:57 51°24.791 3°8.984 86.2 14.7 83 11.6
2004-06-29 09:20:56 51°24.828 3°9.364 82 14.7 79 11.4
2004-06-29 09:21:57 51°24.881 3°9.753 79.5 14.8 78 11.2
2004-06-29 09:22:57 51°24.945 3°10.131 75.5 14.8 73 11.2
2004-06-29 09:23:57 51°25.025 3°10.497 66.7 14.7 66 11.2
2004-06-29 09:24:54 51°25.128 3°10.824 66.4 14.4 61 11.4
2004-06-29 09:25:57 51°25.314 3°11.067 23.5 13.8 17 11.3
2004-06-29 09:27:08 51°25.575 3°11.056 348 13.3 348 10.6
2004-06-29 09:28:07 51°25.786 3°10.966 346.2 13.5 346 9.8
2004-06-29 09:29:07 51°25.995 3°10.843 337.3 13.4 337 10.3
2004-06-29 09:30:07 51°26.202 3°10.705 337.4 13.5 338 10.6
2004-06-29 09:31:08 51°26.414 3°10.567 337.8 13.5 339 11.2
2004-06-29 09:32:08 51°26.619 3°10.417 332.6 13.4 333 11.8
2004-06-29 09:33:09 51°26.82 3°10.251 329.9 13.4 330 12.3
2004-06-29 09:34:11 51°27.019 3°10.066 327.2 13.3 327 12.5
2004-06-29 09:35:17 51°27.215 3°9.835 322.9 13.4 323 13.2
2004-06-29 09:36:17 51°27.397 3°9.629 326.3 13.5 328 13.6
2004-06-29 09:37:17 51°27.608 3°9.501 346 13.8 349 14.1
2004-06-29 09:38:17 51°27.842 3°9.517 10.1 14.2 11 14.4
2004-06-29 09:39:21 51°28.08 3°9.673 30.7 14.8 31 15.3
2004-06-29 09:40:22 51°28.271 3°9.93 48 14.7 48 15.3
2004-06-29 09:41:21 51°28.405 3°10.253 65.3 14.8 63 14.8
2004-06-29 09:42:21 51°28.521 3°10.595 65 14.7 61 14.3
2004-06-29 09:43:21 51°28.634 3°10.942 71.4 14.6 69 14
2004-06-29 09:44:22 51°28.693 3°11.332 88.1 14.9 83 13.8
2004-06-29 09:45:20 51°28.699 3°11.708 98.3 14.4 94 12.8
2004-06-29 09:46:22 51°28.631 3°12.081 119.9 14.2 110 12.3
2004-06-29 09:47:22 51°28.492 3°12.367 150.2 13.3 143 12
2004-06-29 09:48:34 51°28.268 3°12.603 153.1 13.5 146 11.6
2004-06-29 09:49:54 51°28.03 3°12.889 144.8 13.5 138 11.4
2004-06-29 09:50:53 51°27.858 3°13.11 147.3 13.4 141 11.2
2004-06-29 09:51:54 51°27.675 3°13.332 153 13.5 146 11
2004-06-29 09:52:54 51°27.493 3°13.544 150.5 13.4 144 10.9
2004-06-29 09:53:54 51°27.311 3°13.758 149.8 13.4 145 10.7
2004-06-29 09:54:52 51°27.139 3°13.968 148.3 13.6 146 10.4
2004-06-29 09:55:54 51°26.944 3°14.172 154.5 13.5 148 10.4
2004-06-29 09:56:53 51°26.758 3°14.36 155 13.3 149 10.2
2004-06-29 09:57:54 51°26.567 3°14.562 154.2 13.4 146 9.8
2004-06-29 09:58:54 51°26.383 3°14.756 155.9 13.1 146 9.4
2004-06-29 09:59:54 51°26.199 3°14.949 155.2 13.2 147 9
2004-06-29 10:00:58 51°25.998 3°15.146 159.6 13.2 155 9.4
2004-06-29 10:01:58 51°25.815 3°15.355 140 13.9 134 10.3
2004-06-29 10:02:58 51°25.664 3°15.623 138.9 13.4 134 10.6
2004-06-29 10:03:57 51°25.51 3°15.887 138.6 13.8 131 11.5
2004-06-29 10:04:57 51°25.356 3°16.167 138.4 13.9 131 12.7
2004-06-29 10:05:58 51°25.241 3°16.502 123.4 14.4 114 13.7
2004-06-29 10:06:57 51°25.136 3°16.838 124.5 14.3 116 15
2004-06-29 10:07:58 51°25.01 3°17.173 132.1 14.6 125 15.7
2004-06-29 10:08:58 51°24.847 3°17.446 152.4 14.1 141 14.9
2004-06-29 10:09:58 51°24.635 3°17.553 184.1 13.2 172 19.6
2004-06-29 10:10:57 51°24.423 3°17.563 188.9 13 180 20.6
2004-06-29 10:11:58 51°24.203 3°17.539 196.1 13 186 17.3
2004-06-29 10:12:58 51°23.996 3°17.46 203.9 12.8 192 15.2
2004-06-29 10:13:58 51°23.798 3°17.357 216.5 12.3 209 13.9
2004-06-29 10:14:58 51°23.623 3°17.19 224.6 12.3 217 13
2004-06-29 10:15:58 51°23.481 3°16.957 239.6 12.1 233 11.9
2004-06-29 10:16:57 51°23.384 3°16.687 247.5 12 241 11.3
2004-06-29 10:17:56 51°23.29 3°16.415 247.5 11.9 242 10.9
2004-06-29 10:18:56 51°23.219 3°16.123 258.2 11.8 253 10.6
2004-06-29 10:19:58 51°23.157 3°15.812 257.5 11.8 252 10.7
2004-06-29 10:20:58 51°23.097 3°15.512 256.9 11.9 252 10.8
2004-06-29 10:21:58 51°23.036 3°15.208 256.7 12 252 11
2004-06-29 10:22:58 51°22.976 3°14.904 259.1 12 255 11.3
2004-06-29 10:23:57 51°22.922 3°14.6 258.1 12.1 254 11.9
2004-06-29 10:24:58 51°22.865 3°14.287 258.5 12 254 12.3
2004-06-29 10:25:56 51°22.818 3°13.988 260.4 12 257 12.9
2004-06-29 10:26:58 51°22.769 3°13.668 260.5 11.9 256 13.3
2004-06-29 10:27:58 51°22.725 3°13.358 261.4 12 257 14.1
2004-06-29 10:28:58 51°22.679 3°13.046 259.8 12.1 257 14.7
2004-06-29 10:29:58 51°22.634 3°12.732 260.4 12.1 257 15.3
2004-06-29 10:30:58 51°22.588 3°12.415 260 12.3 256 15.8
2004-06-29 10:32:04 51°22.539 3°12.066 259.8 12.2 257 16.4
2004-06-29 10:33:03 51°22.495 3°11.752 259.9 12.3 257 17.1
2004-06-29 10:34:04 51°22.449 3°11.426 260.2 12.4 257 17.5
2004-06-29 10:35:04 51°22.404 3°11.102 260.9 12.5 257 17.7
2004-06-29 10:36:04 51°22.362 3°10.776 260.2 12.4 258 19.3
2004-06-29 10:37:04 51°22.317 3°10.45 260.5 12.6 258 20.3
2004-06-29 10:38:04 51°22.275 3°10.125 260.3 12.4 258 16.1
2004-06-29 10:39:04 51°22.234 3°9.801 260.5 12.4 259 15.5
2004-06-29 10:40:03 51°22.193 3°9.481 261.1 12.5 260 14.9
2004-06-29 10:41:04 51°22.153 3°9.15 260.5 12.5 258 14.5
2004-06-29 10:42:04 51°22.113 3°8.826 260.3 12.4 259 14.2
2004-06-29 10:43:04 51°22.072 3°8.503 260.4 12.4 259 13.8
2004-06-29 10:44:04 51°22.032 3°8.181 260.4 12.4 259 13.7
2004-06-29 10:45:04 51°21.992 3°7.856 260.4 12.5 259 13.6
2004-06-29 10:46:04 51°21.952 3°7.532 259.8 12.4 258 13.6
2004-06-29 10:47:05 51°21.912 3°7.201 260.3 12.5 259 13.5
2004-06-29 10:48:06 51°21.85 3°6.882 250.1 12.3 247 13.3
2004-06-29 10:49:06 51°21.77 3°6.579 249.6 12.4 247 13.1
2004-06-29 10:50:06 51°21.694 3°6.274 250.8 12.3 248 12.8
2004-06-29 10:51:05 51°21.62 3°5.972 249.8 12.4 248 12.7
2004-06-29 10:52:05 51°21.545 3°5.664 250 12.5 249 12.5
2004-06-29 10:53:06 51°21.469 3°5.35 250.8 12.4 250 12.5
2004-06-29 10:54:06 51°21.397 3°5.036 251.8 12.5 250 12.4
2004-06-29 10:55:06 51°21.324 3°4.722 251.7 12.6 250 12.3
2004-06-29 10:56:06 51°21.249 3°4.408 250.1 12.7 247 12.3
2004-06-29 10:57:06 51°21.169 3°4.098 249.7 12.6 247 12
2004-06-29 10:58:06 51°21.093 3°3.786 249.9 12.6 249 11.9
2004-06-29 10:59:06 51°21.016 3°3.473 250 12.6 248 11.9
2004-06-29 11:00:05 51°20.942 3°3.164 249.8 12.7 249 11.8
2004-06-29 11:01:05 51°20.863 3°2.852 248.6 12.7 248 11.7
2004-06-29 11:02:07 51°20.782 3°2.527 249.4 12.8 249 11.7
2004-06-29 11:03:06 51°20.705 3°2.218 249.5 12.6 248 11.7
2004-06-29 11:04:05 51°20.625 3°1.914 248.4 12.7 248 11.5
2004-06-29 11:05:06 51°20.542 3°1.6 248.3 12.6 247 11.3
2004-06-29 11:06:06 51°20.461 3°1.293 248.8 12.5 247 11.3
2004-06-29 11:07:06 51°20.38 3°0.987 248.5 12.5 247 11.4
2004-06-29 11:08:06 51°20.299 3°0.68 248.5 12.6 247 11.3
2004-06-29 11:09:06 51°20.219 3°0.37 249.2 12.6 248 11.3
2004-06-29 11:10:06 51°20.14 3°0.057 249.6 12.8 248 11.4
2004-06-29 11:11:06 51°20.061 2°59.741 249.3 12.7 249 11.4
2004-06-29 11:12:06 51°19.982 2°59.425 249.6 12.8 249 11.4
2004-06-29 11:13:07 51°19.903 2°59.105 249.1 12.8 249 11.4
2004-06-29 11:14:06 51°19.825 2°58.795 249.1 12.8 248 11.4
2004-06-29 11:15:06 51°19.746 2°58.48 248.9 12.7 249 11.5
2004-06-29 11:16:06 51°19.667 2°58.166 249.2 12.7 248 11.6
2004-06-29 11:17:06 51°19.589 2°57.852 249.5 12.7 249 11.8
2004-06-29 11:18:06 51°19.511 2°57.537 248.9 12.8 248 11.9
2004-06-29 11:19:06 51°19.432 2°57.222 249.3 12.8 249 12.1
2004-06-29 11:20:06 51°19.352 2°56.909 249.4 12.7 247 12.2
2004-06-29 11:21:06 51°19.273 2°56.596 248.9 12.7 248 12.2
2004-06-29 11:22:06 51°19.193 2°56.281 249.2 12.8 248 12.4
2004-06-29 11:23:06 51°19.114 2°55.967 249 12.7 248 12.4
2004-06-29 11:24:06 51°19.035 2°55.652 249.7 12.7 248 12.4
2004-06-29 11:25:06 51°18.955 2°55.338 248.9 12.7 247 12.5
2004-06-29 11:26:06 51°18.875 2°55.023 249 12.8 248 12.6
2004-06-29 11:27:06 51°18.795 2°54.71 249.1 12.7 248 12.6
2004-06-29 11:28:06 51°18.714 2°54.396 249.4 12.8 248 12.7
2004-06-29 11:29:06 51°18.633 2°54.082 249 12.8 247 12.6
2004-06-29 11:30:06 51°18.553 2°53.768 248.8 12.8 248 12.6
2004-06-29 11:31:05 51°18.475 2°53.46 249.1 12.8 248 12.7
2004-06-29 11:32:06 51°18.394 2°53.139 249 12.8 248 12.6
2004-06-29 11:33:06 51°18.312 2°52.827 247.5 12.6 245 12.4
2004-06-29 11:34:05 51°18.18 2°52.583 217.3 12.3 212 12.3
2004-06-29 11:35:06 51°17.983 2°52.461 199.9 12.7 196 12
2004-06-29 11:36:06 51°17.779 2°52.397 188.4 12.7 182 11.6
2004-06-29 11:37:06 51°17.566 2°52.407 183.2 12.7 177 11.9
2004-06-29 11:38:06 51°17.353 2°52.44 176.7 13 170 11.7
2004-06-29 11:39:07 51°17.139 2°52.507 173.2 12.8 163 11.3
2004-06-29 11:40:06 51°16.94 2°52.632 163.1 13.2 157 11.3
2004-06-29 11:41:05 51°16.741 2°52.763 163.9 13.1 157 11.7
2004-06-29 11:42:06 51°16.533 2°52.901 164 13.4 156 13.2
2004-06-29 11:43:06 51°16.334 2°53.061 159.6 13.3 152 13.7
2004-06-29 11:44:06 51°16.137 2°53.223 159.3 13.2 153 13.5
2004-06-29 11:45:06 51°15.938 2°53.377 161.1 13.2 157 13.1
2004-06-29 11:46:06 51°15.738 2°53.53 159.5 13.3 155 12.6
2004-06-29 11:47:06 51°15.536 2°53.682 161.3 13.3 156 12
2004-06-29 11:48:06 51°15.334 2°53.837 158.9 13.5 153 11
2004-06-29 11:49:06 51°15.177 2°53.955 157.3 10.9 150 10.8
2004-06-29 11:50:06 51°15 2°54.131 152.6 12.8 146 10.2
2004-06-29 11:51:07 51°14.826 2°54.348 145.9 13.3 136 10.9
2004-06-29 11:52:06 51°14.667 2°54.576 144.4 13 138 11.1
2004-06-29 11:53:06 51°14.513 2°54.801 142.5 12.2 137 11.6
2004-06-29 11:54:06 51°14.396 2°54.991 138.5 9.2 135 12.3